sensor_id;sensor_type;location;lat;lon;timestamp;P1;durP1;ratioP1;P2;durP2;ratioP2
16667;SDS011;8447;52.630;4.734;2022-09-03T00:00:59;2.60;;;1.47;;
16667;SDS011;8447;52.630;4.734;2022-09-03T00:03:28;1.47;;;1.30;;
16667;SDS011;8447;52.630;4.734;2022-09-03T00:06:00;1.13;;;1.00;;
16667;SDS011;8447;52.630;4.734;2022-09-03T00:08:30;2.47;;;1.13;;
16667;SDS011;8447;52.630;4.734;2022-09-03T00:10:58;2.80;;;1.40;;
16667;SDS011;8447;52.630;4.734;2022-09-03T00:13:27;1.37;;;1.27;;
16667;SDS011;8447;52.630;4.734;2022-09-03T00:15:54;4.37;;;1.93;;
16667;SDS011;8447;52.630;4.734;2022-09-03T00:18:23;1.97;;;0.97;;
16667;SDS011;8447;52.630;4.734;2022-09-03T00:20:51;1.80;;;1.53;;
16667;SDS011;8447;52.630;4.734;2022-09-03T00:23:19;3.63;;;1.30;;
16667;SDS011;8447;52.630;4.734;2022-09-03T00:25:49;1.10;;;1.00;;
16667;SDS011;8447;52.630;4.734;2022-09-03T00:28:18;3.23;;;1.40;;
16667;SDS011;8447;52.630;4.734;2022-09-03T00:30:49;1.50;;;1.40;;
16667;SDS011;8447;52.630;4.734;2022-09-03T00:33:19;3.40;;;1.30;;
16667;SDS011;8447;52.630;4.734;2022-09-03T00:35:48;2.90;;;1.30;;
16667;SDS011;8447;52.630;4.734;2022-09-03T00:38:15;2.10;;;1.30;;
16667;SDS011;8447;52.630;4.734;2022-09-03T00:40:47;3.73;;;1.37;;
16667;SDS011;8447;52.630;4.734;2022-09-03T00:43:21;2.43;;;1.03;;
16667;SDS011;8447;52.630;4.734;2022-09-03T00:45:51;1.73;;;1.20;;
16667;SDS011;8447;52.630;4.734;2022-09-03T00:48:21;1.10;;;1.00;;
16667;SDS011;8447;52.630;4.734;2022-09-03T00:50:54;2.00;;;1.23;;
16667;SDS011;8447;52.630;4.734;2022-09-03T00:53:27;1.50;;;1.20;;
16667;SDS011;8447;52.630;4.734;2022-09-03T00:55:57;2.10;;;1.40;;
16667;SDS011;8447;52.630;4.734;2022-09-03T00:58:35;2.80;;;1.17;;
16667;SDS011;8447;52.630;4.734;2022-09-03T01:01:06;1.70;;;1.50;;
16667;SDS011;8447;52.630;4.734;2022-09-03T01:03:36;2.40;;;1.47;;
16667;SDS011;8447;52.630;4.734;2022-09-03T01:06:10;1.57;;;1.10;;
16667;SDS011;8447;52.630;4.734;2022-09-03T01:08:50;2.17;;;1.23;;
16667;SDS011;8447;52.630;4.734;2022-09-03T01:11:19;3.17;;;1.30;;
16667;SDS011;8447;52.630;4.734;2022-09-03T01:13:54;3.67;;;1.10;;
16667;SDS011;8447;52.630;4.734;2022-09-03T01:16:24;2.80;;;1.03;;
16667;SDS011;8447;52.630;4.734;2022-09-03T01:18:54;2.40;;;1.10;;
16667;SDS011;8447;52.630;4.734;2022-09-03T01:21:37;6.13;;;1.50;;
16667;SDS011;8447;52.630;4.734;2022-09-03T01:24:25;1.30;;;1.20;;
16667;SDS011;8447;52.630;4.734;2022-09-03T01:27:10;3.30;;;1.33;;
16667;SDS011;8447;52.630;4.734;2022-09-03T01:29:43;3.80;;;1.20;;
16667;SDS011;8447;52.630;4.734;2022-09-03T01:32:13;5.70;;;1.50;;
16667;SDS011;8447;52.630;4.734;2022-09-03T01:34:46;3.00;;;1.30;;
16667;SDS011;8447;52.630;4.734;2022-09-03T01:37:18;3.17;;;1.23;;
16667;SDS011;8447;52.630;4.734;2022-09-03T01:39:51;4.77;;;1.17;;
16667;SDS011;8447;52.630;4.734;2022-09-03T01:42:22;3.30;;;1.33;;
16667;SDS011;8447;52.630;4.734;2022-09-03T01:45:02;2.30;;;1.10;;
16667;SDS011;8447;52.630;4.734;2022-09-03T01:47:33;1.77;;;1.23;;
16667;SDS011;8447;52.630;4.734;2022-09-03T01:50:03;3.40;;;1.43;;
16667;SDS011;8447;52.630;4.734;2022-09-03T01:52:35;3.10;;;1.30;;
16667;SDS011;8447;52.630;4.734;2022-09-03T01:55:05;2.33;;;1.50;;
16667;SDS011;8447;52.630;4.734;2022-09-03T01:57:43;1.80;;;1.20;;
16667;SDS011;8447;52.630;4.734;2022-09-03T02:00:13;3.50;;;1.20;;
16667;SDS011;8447;52.630;4.734;2022-09-03T02:02:40;2.67;;;1.20;;
16667;SDS011;8447;52.630;4.734;2022-09-03T02:05:08;5.83;;;1.53;;
16667;SDS011;8447;52.630;4.734;2022-09-03T02:07:36;3.90;;;1.47;;
16667;SDS011;8447;52.630;4.734;2022-09-03T02:10:05;2.63;;;1.57;;
16667;SDS011;8447;52.630;4.734;2022-09-03T02:12:31;1.23;;;0.90;;
16667;SDS011;8447;52.630;4.734;2022-09-03T02:14:59;2.07;;;1.30;;
16667;SDS011;8447;52.630;4.734;2022-09-03T02:17:29;1.63;;;1.20;;
16667;SDS011;8447;52.630;4.734;2022-09-03T02:19:55;4.30;;;1.63;;
16667;SDS011;8447;52.630;4.734;2022-09-03T02:22:23;3.90;;;1.47;;
16667;SDS011;8447;52.630;4.734;2022-09-03T02:24:50;2.47;;;1.47;;
16667;SDS011;8447;52.630;4.734;2022-09-03T02:27:16;3.10;;;1.33;;
16667;SDS011;8447;52.630;4.734;2022-09-03T02:29:43;1.57;;;1.40;;
16667;SDS011;8447;52.630;4.734;2022-09-03T02:32:09;2.07;;;1.20;;
16667;SDS011;8447;52.630;4.734;2022-09-03T02:34:40;2.27;;;1.30;;
16667;SDS011;8447;52.630;4.734;2022-09-03T02:37:10;2.40;;;1.47;;
16667;SDS011;8447;52.630;4.734;2022-09-03T02:39:37;1.43;;;1.10;;
16667;SDS011;8447;52.630;4.734;2022-09-03T02:42:04;2.83;;;1.33;;
16667;SDS011;8447;52.630;4.734;2022-09-03T02:44:30;2.07;;;1.10;;
16667;SDS011;8447;52.630;4.734;2022-09-03T02:46:59;1.73;;;1.30;;
16667;SDS011;8447;52.630;4.734;2022-09-03T02:49:26;2.13;;;1.30;;
16667;SDS011;8447;52.630;4.734;2022-09-03T02:51:57;1.47;;;1.20;;
16667;SDS011;8447;52.630;4.734;2022-09-03T02:54:24;2.70;;;1.50;;
16667;SDS011;8447;52.630;4.734;2022-09-03T02:56:51;1.97;;;1.20;;
16667;SDS011;8447;52.630;4.734;2022-09-03T02:59:17;2.63;;;1.33;;
16667;SDS011;8447;52.630;4.734;2022-09-03T03:01:44;3.30;;;1.37;;
16667;SDS011;8447;52.630;4.734;2022-09-03T03:04:11;2.07;;;1.13;;
16667;SDS011;8447;52.630;4.734;2022-09-03T03:06:37;1.70;;;1.20;;
16667;SDS011;8447;52.630;4.734;2022-09-03T03:09:05;3.47;;;1.10;;
16667;SDS011;8447;52.630;4.734;2022-09-03T03:11:32;4.50;;;1.17;;
16667;SDS011;8447;52.630;4.734;2022-09-03T03:14:01;1.87;;;1.07;;
16667;SDS011;8447;52.630;4.734;2022-09-03T03:16:27;2.33;;;1.50;;
16667;SDS011;8447;52.630;4.734;2022-09-03T03:18:54;2.17;;;1.30;;
16667;SDS011;8447;52.630;4.734;2022-09-03T03:21:21;2.47;;;1.20;;
16667;SDS011;8447;52.630;4.734;2022-09-03T03:23:47;2.40;;;1.40;;
16667;SDS011;8447;52.630;4.734;2022-09-03T03:26:16;1.40;;;1.10;;
16667;SDS011;8447;52.630;4.734;2022-09-03T03:28:43;1.70;;;1.20;;
16667;SDS011;8447;52.630;4.734;2022-09-03T03:31:11;2.70;;;1.07;;
16667;SDS011;8447;52.630;4.734;2022-09-03T03:33:38;2.10;;;1.43;;
16667;SDS011;8447;52.630;4.734;2022-09-03T03:36:04;1.67;;;1.20;;
16667;SDS011;8447;52.630;4.734;2022-09-03T03:38:32;2.83;;;1.80;;
16667;SDS011;8447;52.630;4.734;2022-09-03T03:40:58;3.23;;;1.20;;
16667;SDS011;8447;52.630;4.734;2022-09-03T03:43:26;1.67;;;1.10;;
16667;SDS011;8447;52.630;4.734;2022-09-03T03:45:56;6.90;;;1.30;;
16667;SDS011;8447;52.630;4.734;2022-09-03T03:48:22;1.77;;;1.30;;
16667;SDS011;8447;52.630;4.734;2022-09-03T03:50:49;2.03;;;1.20;;
16667;SDS011;8447;52.630;4.734;2022-09-03T03:53:15;1.43;;;1.10;;
16667;SDS011;8447;52.630;4.734;2022-09-03T03:55:42;1.90;;;1.50;;
16667;SDS011;8447;52.630;4.734;2022-09-03T03:58:08;1.20;;;1.10;;
16667;SDS011;8447;52.630;4.734;2022-09-03T04:00:36;4.63;;;1.33;;
16667;SDS011;8447;52.630;4.734;2022-09-03T04:03:03;1.57;;;1.30;;
16667;SDS011;8447;52.630;4.734;2022-09-03T04:05:29;2.10;;;1.40;;
16667;SDS011;8447;52.630;4.734;2022-09-03T04:07:59;2.63;;;1.30;;
16667;SDS011;8447;52.630;4.734;2022-09-03T04:10:26;2.97;;;1.20;;
16667;SDS011;8447;52.630;4.734;2022-09-03T04:12:52;3.30;;;1.30;;
16667;SDS011;8447;52.630;4.734;2022-09-03T04:15:19;2.93;;;1.73;;
16667;SDS011;8447;52.630;4.734;2022-09-03T04:17:46;2.57;;;1.30;;
16667;SDS011;8447;52.630;4.734;2022-09-03T04:20:13;3.60;;;1.50;;
16667;SDS011;8447;52.630;4.734;2022-09-03T04:22:39;1.47;;;1.37;;
16667;SDS011;8447;52.630;4.734;2022-09-03T04:25:06;3.57;;;1.43;;
16667;SDS011;8447;52.630;4.734;2022-09-03T04:27:32;1.63;;;1.20;;
16667;SDS011;8447;52.630;4.734;2022-09-03T04:29:59;1.63;;;1.30;;
16667;SDS011;8447;52.630;4.734;2022-09-03T04:32:26;3.53;;;1.43;;
16667;SDS011;8447;52.630;4.734;2022-09-03T04:35:11;1.63;;;1.20;;
16667;SDS011;8447;52.630;4.734;2022-09-03T04:37:37;2.73;;;1.43;;
16667;SDS011;8447;52.630;4.734;2022-09-03T04:40:04;2.37;;;1.30;;
16667;SDS011;8447;52.630;4.734;2022-09-03T04:42:31;1.47;;;1.10;;
16667;SDS011;8447;52.630;4.734;2022-09-03T04:44:57;4.23;;;1.50;;
16667;SDS011;8447;52.630;4.734;2022-09-03T04:47:24;1.93;;;1.20;;
16667;SDS011;8447;52.630;4.734;2022-09-03T04:49:52;1.50;;;1.40;;
16667;SDS011;8447;52.630;4.734;2022-09-03T04:52:20;1.70;;;1.30;;
16667;SDS011;8447;52.630;4.734;2022-09-03T04:54:46;2.60;;;1.37;;
16667;SDS011;8447;52.630;4.734;2022-09-03T04:57:13;4.03;;;1.40;;
16667;SDS011;8447;52.630;4.734;2022-09-03T04:59:39;2.90;;;1.47;;
16667;SDS011;8447;52.630;4.734;2022-09-03T05:02:06;4.60;;;1.30;;
16667;SDS011;8447;52.630;4.734;2022-09-03T05:04:34;2.00;;;1.30;;
16667;SDS011;8447;52.630;4.734;2022-09-03T05:07:00;1.80;;;1.60;;
16667;SDS011;8447;52.630;4.734;2022-09-03T05:09:28;1.53;;;1.10;;
16667;SDS011;8447;52.630;4.734;2022-09-03T05:11:54;2.43;;;1.20;;
16667;SDS011;8447;52.630;4.734;2022-09-03T05:14:21;1.30;;;1.07;;
16667;SDS011;8447;52.630;4.734;2022-09-03T05:16:47;1.30;;;1.10;;
16667;SDS011;8447;52.630;4.734;2022-09-03T05:19:14;1.57;;;1.20;;
16667;SDS011;8447;52.630;4.734;2022-09-03T05:21:40;2.30;;;1.03;;
16667;SDS011;8447;52.630;4.734;2022-09-03T05:24:07;1.23;;;1.13;;
16667;SDS011;8447;52.630;4.734;2022-09-03T05:26:37;2.97;;;1.20;;
16667;SDS011;8447;52.630;4.734;2022-09-03T05:29:04;1.40;;;1.20;;
16667;SDS011;8447;52.630;4.734;2022-09-03T05:31:32;1.27;;;1.17;;
16667;SDS011;8447;52.630;4.734;2022-09-03T05:34:00;1.70;;;0.97;;
16667;SDS011;8447;52.630;4.734;2022-09-03T05:36:27;2.80;;;1.33;;
16667;SDS011;8447;52.630;4.734;2022-09-03T05:38:54;2.13;;;1.00;;
16667;SDS011;8447;52.630;4.734;2022-09-03T05:41:20;1.93;;;1.20;;
16667;SDS011;8447;52.630;4.734;2022-09-03T05:43:49;3.53;;;1.20;;
16667;SDS011;8447;52.630;4.734;2022-09-03T05:46:20;4.27;;;1.00;;
16667;SDS011;8447;52.630;4.734;2022-09-03T05:48:50;1.53;;;1.30;;
16667;SDS011;8447;52.630;4.734;2022-09-03T05:51:16;1.40;;;0.90;;
16667;SDS011;8447;52.630;4.734;2022-09-03T05:53:43;1.83;;;1.33;;
16667;SDS011;8447;52.630;4.734;2022-09-03T05:56:10;1.33;;;1.07;;
16667;SDS011;8447;52.630;4.734;2022-09-03T05:58:38;2.77;;;1.10;;
16667;SDS011;8447;52.630;4.734;2022-09-03T06:01:10;1.90;;;1.00;;
16667;SDS011;8447;52.630;4.734;2022-09-03T06:03:37;1.30;;;1.10;;
16667;SDS011;8447;52.630;4.734;2022-09-03T06:06:04;1.83;;;1.00;;
16667;SDS011;8447;52.630;4.734;2022-09-03T06:08:31;2.60;;;1.10;;
16667;SDS011;8447;52.630;4.734;2022-09-03T06:10:57;0.73;;;0.70;;
16667;SDS011;8447;52.630;4.734;2022-09-03T06:13:23;2.03;;;0.97;;
16667;SDS011;8447;52.630;4.734;2022-09-03T06:15:54;1.23;;;1.00;;
16667;SDS011;8447;52.630;4.734;2022-09-03T06:18:22;4.00;;;0.93;;
16667;SDS011;8447;52.630;4.734;2022-09-03T06:20:52;0.80;;;0.80;;
16667;SDS011;8447;52.630;4.734;2022-09-03T06:23:19;1.47;;;1.00;;
16667;SDS011;8447;52.630;4.734;2022-09-03T06:25:45;2.70;;;1.03;;
16667;SDS011;8447;52.630;4.734;2022-09-03T06:28:11;1.13;;;1.00;;
16667;SDS011;8447;52.630;4.734;2022-09-03T06:30:38;0.90;;;0.90;;
16667;SDS011;8447;52.630;4.734;2022-09-03T06:33:05;1.87;;;0.90;;
16667;SDS011;8447;52.630;4.734;2022-09-03T06:35:33;1.63;;;0.80;;
16667;SDS011;8447;52.630;4.734;2022-09-03T06:38:00;2.63;;;0.90;;
16667;SDS011;8447;52.630;4.734;2022-09-03T06:40:26;3.30;;;1.20;;
16667;SDS011;8447;52.630;4.734;2022-09-03T06:42:56;3.27;;;0.93;;
16667;SDS011;8447;52.630;4.734;2022-09-03T06:45:26;2.73;;;1.13;;
16667;SDS011;8447;52.630;4.734;2022-09-03T06:47:53;1.37;;;0.87;;
16667;SDS011;8447;52.630;4.734;2022-09-03T06:50:19;1.23;;;0.83;;
16667;SDS011;8447;52.630;4.734;2022-09-03T06:52:50;1.07;;;0.90;;
16667;SDS011;8447;52.630;4.734;2022-09-03T06:55:17;2.57;;;0.83;;
16667;SDS011;8447;52.630;4.734;2022-09-03T06:57:44;3.50;;;1.20;;
16667;SDS011;8447;52.630;4.734;2022-09-03T07:00:11;1.80;;;0.90;;
16667;SDS011;8447;52.630;4.734;2022-09-03T07:02:38;1.77;;;0.80;;
16667;SDS011;8447;52.630;4.734;2022-09-03T07:05:05;1.33;;;0.63;;
16667;SDS011;8447;52.630;4.734;2022-09-03T07:07:32;1.97;;;1.20;;
16667;SDS011;8447;52.630;4.734;2022-09-03T07:09:59;1.37;;;0.83;;
16667;SDS011;8447;52.630;4.734;2022-09-03T07:12:26;1.30;;;0.87;;
16667;SDS011;8447;52.630;4.734;2022-09-03T07:14:52;0.90;;;0.77;;
16667;SDS011;8447;52.630;4.734;2022-09-03T07:17:19;3.07;;;0.80;;
16667;SDS011;8447;52.630;4.734;2022-09-03T07:19:45;1.73;;;0.77;;
16667;SDS011;8447;52.630;4.734;2022-09-03T07:22:12;2.50;;;0.80;;
16667;SDS011;8447;52.630;4.734;2022-09-03T07:24:38;8.23;;;1.23;;
16667;SDS011;8447;52.630;4.734;2022-09-03T07:27:07;3.37;;;0.90;;
16667;SDS011;8447;52.630;4.734;2022-09-03T07:29:33;2.17;;;0.80;;
16667;SDS011;8447;52.630;4.734;2022-09-03T07:31:59;2.97;;;0.90;;
16667;SDS011;8447;52.630;4.734;2022-09-03T07:34:27;1.13;;;0.77;;
16667;SDS011;8447;52.630;4.734;2022-09-03T07:36:53;1.23;;;0.80;;
16667;SDS011;8447;52.630;4.734;2022-09-03T07:39:20;1.23;;;0.80;;
16667;SDS011;8447;52.630;4.734;2022-09-03T07:41:46;1.50;;;0.87;;
16667;SDS011;8447;52.630;4.734;2022-09-03T07:44:15;1.70;;;0.90;;
16667;SDS011;8447;52.630;4.734;2022-09-03T07:46:43;1.40;;;0.90;;
16667;SDS011;8447;52.630;4.734;2022-09-03T07:49:11;2.40;;;0.70;;
16667;SDS011;8447;52.630;4.734;2022-09-03T07:51:38;3.27;;;0.90;;
16667;SDS011;8447;52.630;4.734;2022-09-03T07:54:05;6.20;;;0.70;;
16667;SDS011;8447;52.630;4.734;2022-09-03T07:56:33;1.67;;;0.93;;
16667;SDS011;8447;52.630;4.734;2022-09-03T07:59:00;2.77;;;0.90;;
16667;SDS011;8447;52.630;4.734;2022-09-03T08:01:29;1.30;;;0.97;;
16667;SDS011;8447;52.630;4.734;2022-09-03T08:03:56;1.23;;;1.10;;
16667;SDS011;8447;52.630;4.734;2022-09-03T08:06:23;1.43;;;0.70;;
16667;SDS011;8447;52.630;4.734;2022-09-03T08:08:53;1.67;;;0.70;;
16667;SDS011;8447;52.630;4.734;2022-09-03T08:11:21;1.50;;;0.80;;
16667;SDS011;8447;52.630;4.734;2022-09-03T08:13:47;6.00;;;0.90;;
16667;SDS011;8447;52.630;4.734;2022-09-03T08:16:15;4.17;;;1.00;;
16667;SDS011;8447;52.630;4.734;2022-09-03T08:18:43;1.07;;;0.77;;
16667;SDS011;8447;52.630;4.734;2022-09-03T08:21:11;1.20;;;0.93;;
16667;SDS011;8447;52.630;4.734;2022-09-03T08:23:40;2.07;;;0.80;;
16667;SDS011;8447;52.630;4.734;2022-09-03T08:26:07;0.70;;;0.70;;
16667;SDS011;8447;52.630;4.734;2022-09-03T08:28:33;1.63;;;0.90;;
16667;SDS011;8447;52.630;4.734;2022-09-03T08:31:03;2.33;;;0.80;;
16667;SDS011;8447;52.630;4.734;2022-09-03T08:33:30;3.08;;;0.77;;
16667;SDS011;8447;52.630;4.734;2022-09-03T08:36:09;4.53;;;1.52;;
16667;SDS011;8447;52.630;4.734;2022-09-03T08:38:36;0.93;;;0.70;;
16667;SDS011;8447;52.630;4.734;2022-09-03T08:41:04;5.10;;;0.90;;
16667;SDS011;8447;52.630;4.734;2022-09-03T08:43:36;3.47;;;1.00;;
16667;SDS011;8447;52.630;4.734;2022-09-03T08:46:04;1.52;;;1.27;;
16667;SDS011;8447;52.630;4.734;2022-09-03T08:48:31;2.40;;;1.15;;
16667;SDS011;8447;52.630;4.734;2022-09-03T08:50:58;1.35;;;0.60;;
16667;SDS011;8447;52.630;4.734;2022-09-03T08:53:27;0.80;;;0.80;;
16667;SDS011;8447;52.630;4.734;2022-09-03T08:55:56;2.00;;;0.90;;
16667;SDS011;8447;52.630;4.734;2022-09-03T08:58:24;2.85;;;1.05;;
16667;SDS011;8447;52.630;4.734;2022-09-03T09:00:53;2.05;;;0.90;;
16667;SDS011;8447;52.630;4.734;2022-09-03T09:03:40;1.17;;;0.80;;
16667;SDS011;8447;52.630;4.734;2022-09-03T09:06:10;1.55;;;0.82;;
16667;SDS011;8447;52.630;4.734;2022-09-03T09:08:42;1.25;;;0.80;;
16667;SDS011;8447;52.630;4.734;2022-09-03T09:11:13;1.23;;;0.82;;
16667;SDS011;8447;52.630;4.734;2022-09-03T09:13:44;1.33;;;0.98;;
16667;SDS011;8447;52.630;4.734;2022-09-03T09:16:14;2.40;;;0.88;;
16667;SDS011;8447;52.630;4.734;2022-09-03T09:18:45;1.83;;;0.95;;
16667;SDS011;8447;52.630;4.734;2022-09-03T09:21:14;2.25;;;0.88;;
16667;SDS011;8447;52.630;4.734;2022-09-03T09:23:43;3.08;;;0.90;;
16667;SDS011;8447;52.630;4.734;2022-09-03T09:26:12;2.08;;;0.80;;
16667;SDS011;8447;52.630;4.734;2022-09-03T09:28:39;5.00;;;0.80;;
16667;SDS011;8447;52.630;4.734;2022-09-03T09:31:06;3.63;;;0.90;;
16667;SDS011;8447;52.630;4.734;2022-09-03T09:33:34;1.83;;;0.70;;
16667;SDS011;8447;52.630;4.734;2022-09-03T09:36:00;3.47;;;1.02;;
16667;SDS011;8447;52.630;4.734;2022-09-03T09:38:28;1.20;;;0.80;;
16667;SDS011;8447;52.630;4.734;2022-09-03T09:41:06;3.15;;;0.80;;
16667;SDS011;8447;52.630;4.734;2022-09-03T09:43:33;1.33;;;0.80;;
16667;SDS011;8447;52.630;4.734;2022-09-03T09:46:04;1.73;;;0.70;;
16667;SDS011;8447;52.630;4.734;2022-09-03T09:48:32;2.10;;;0.90;;
16667;SDS011;8447;52.630;4.734;2022-09-03T09:51:04;1.73;;;0.93;;
16667;SDS011;8447;52.630;4.734;2022-09-03T09:53:31;1.10;;;0.90;;
16667;SDS011;8447;52.630;4.734;2022-09-03T09:56:00;2.03;;;1.10;;
16667;SDS011;8447;52.630;4.734;2022-09-03T09:58:28;1.13;;;0.77;;
16667;SDS011;8447;52.630;4.734;2022-09-03T10:00:56;2.28;;;0.75;;
16667;SDS011;8447;52.630;4.734;2022-09-03T10:03:24;3.88;;;1.00;;
16667;SDS011;8447;52.630;4.734;2022-09-03T10:06:00;2.17;;;0.73;;
16667;SDS011;8447;52.630;4.734;2022-09-03T10:08:47;1.85;;;0.90;;
16667;SDS011;8447;52.630;4.734;2022-09-03T10:11:15;2.78;;;0.80;;
16667;SDS011;8447;52.630;4.734;2022-09-03T10:13:43;1.77;;;0.82;;
16667;SDS011;8447;52.630;4.734;2022-09-03T10:16:12;3.25;;;0.80;;
16667;SDS011;8447;52.630;4.734;2022-09-03T10:18:44;2.35;;;1.40;;
16667;SDS011;8447;52.630;4.734;2022-09-03T10:21:12;3.35;;;0.73;;
16667;SDS011;8447;52.630;4.734;2022-09-03T10:23:43;3.00;;;0.80;;
16667;SDS011;8447;52.630;4.734;2022-09-03T10:26:16;4.93;;;0.68;;
16667;SDS011;8447;52.630;4.734;2022-09-03T10:28:43;0.80;;;0.80;;
16667;SDS011;8447;52.630;4.734;2022-09-03T10:33:57;2.78;;;0.90;;
16667;SDS011;8447;52.630;4.734;2022-09-03T10:36:27;3.22;;;1.10;;
16667;SDS011;8447;52.630;4.734;2022-09-03T10:38:56;1.48;;;0.70;;
16667;SDS011;8447;52.630;4.734;2022-09-03T10:41:29;2.72;;;1.05;;
16667;SDS011;8447;52.630;4.734;2022-09-03T10:44:03;0.80;;;0.80;;
16667;SDS011;8447;52.630;4.734;2022-09-03T10:46:35;3.92;;;0.90;;
16667;SDS011;8447;52.630;4.734;2022-09-03T10:49:19;2.53;;;0.80;;
16667;SDS011;8447;52.630;4.734;2022-09-03T10:51:49;2.75;;;0.85;;
16667;SDS011;8447;52.630;4.734;2022-09-03T10:57:07;4.05;;;0.80;;
16667;SDS011;8447;52.630;4.734;2022-09-03T10:59:38;3.63;;;0.90;;
16667;SDS011;8447;52.630;4.734;2022-09-03T11:02:19;3.10;;;0.90;;
16667;SDS011;8447;52.630;4.734;2022-09-03T11:04:51;2.33;;;1.00;;
16667;SDS011;8447;52.630;4.734;2022-09-03T11:07:19;1.08;;;0.77;;
16667;SDS011;8447;52.630;4.734;2022-09-03T11:09:48;3.60;;;0.90;;
16667;SDS011;8447;52.630;4.734;2022-09-03T11:12:20;1.90;;;0.82;;
16667;SDS011;8447;52.630;4.734;2022-09-03T11:14:49;1.48;;;0.80;;
16667;SDS011;8447;52.630;4.734;2022-09-03T11:17:19;1.83;;;1.05;;
16667;SDS011;8447;52.630;4.734;2022-09-03T11:19:47;2.13;;;1.00;;
16667;SDS011;8447;52.630;4.734;2022-09-03T11:22:14;1.80;;;0.93;;
16667;SDS011;8447;52.630;4.734;2022-09-03T11:24:42;1.40;;;0.90;;
16667;SDS011;8447;52.630;4.734;2022-09-03T11:27:15;2.03;;;1.10;;
16667;SDS011;8447;52.630;4.734;2022-09-03T11:29:45;3.22;;;0.90;;
16667;SDS011;8447;52.630;4.734;2022-09-03T11:32:14;1.35;;;1.02;;
16667;SDS011;8447;52.630;4.734;2022-09-03T11:34:45;1.85;;;0.85;;
16667;SDS011;8447;52.630;4.734;2022-09-03T11:37:16;2.00;;;0.80;;
16667;SDS011;8447;52.630;4.734;2022-09-03T11:39:43;3.35;;;1.00;;
16667;SDS011;8447;52.630;4.734;2022-09-03T11:42:10;1.65;;;0.88;;
16667;SDS011;8447;52.630;4.734;2022-09-03T11:44:38;3.83;;;1.27;;
16667;SDS011;8447;52.630;4.734;2022-09-03T11:47:14;3.65;;;0.88;;
16667;SDS011;8447;52.630;4.734;2022-09-03T11:49:44;2.08;;;0.90;;
16667;SDS011;8447;52.630;4.734;2022-09-03T11:52:23;1.33;;;0.80;;
16667;SDS011;8447;52.630;4.734;2022-09-03T11:54:50;0.73;;;0.60;;
16667;SDS011;8447;52.630;4.734;2022-09-03T11:57:20;2.78;;;0.60;;
16667;SDS011;8447;52.630;4.734;2022-09-03T11:59:48;2.40;;;0.80;;
16667;SDS011;8447;52.630;4.734;2022-09-03T12:02:26;4.85;;;0.80;;
16667;SDS011;8447;52.630;4.734;2022-09-03T12:05:06;1.45;;;0.73;;
16667;SDS011;8447;52.630;4.734;2022-09-03T12:07:44;5.22;;;1.20;;
16667;SDS011;8447;52.630;4.734;2022-09-03T12:10:25;1.73;;;0.73;;
16667;SDS011;8447;52.630;4.734;2022-09-03T12:12:57;1.30;;;0.90;;
16667;SDS011;8447;52.630;4.734;2022-09-03T12:15:31;4.30;;;1.23;;
16667;SDS011;8447;52.630;4.734;2022-09-03T12:18:03;7.00;;;1.02;;
16667;SDS011;8447;52.630;4.734;2022-09-03T12:20:45;1.65;;;0.90;;
16667;SDS011;8447;52.630;4.734;2022-09-03T12:23:11;0.85;;;0.70;;
16667;SDS011;8447;52.630;4.734;2022-09-03T12:25:41;1.75;;;0.82;;
16667;SDS011;8447;52.630;4.734;2022-09-03T12:28:11;1.17;;;0.80;;
16667;SDS011;8447;52.630;4.734;2022-09-03T12:30:37;1.98;;;0.82;;
16667;SDS011;8447;52.630;4.734;2022-09-03T12:33:05;3.08;;;0.77;;
16667;SDS011;8447;52.630;4.734;2022-09-03T12:35:35;1.23;;;0.80;;
16667;SDS011;8447;52.630;4.734;2022-09-03T12:38:01;4.00;;;0.65;;
16667;SDS011;8447;52.630;4.734;2022-09-03T12:40:28;2.75;;;0.75;;
16667;SDS011;8447;52.630;4.734;2022-09-03T12:42:55;1.70;;;0.90;;
16667;SDS011;8447;52.630;4.734;2022-09-03T12:45:41;0.90;;;0.70;;
16667;SDS011;8447;52.630;4.734;2022-09-03T12:48:12;2.05;;;0.60;;
16667;SDS011;8447;52.630;4.734;2022-09-03T12:50:40;1.33;;;0.70;;
16667;SDS011;8447;52.630;4.734;2022-09-03T12:53:07;1.80;;;0.63;;
16667;SDS011;8447;52.630;4.734;2022-09-03T12:55:34;2.13;;;0.70;;
16667;SDS011;8447;52.630;4.734;2022-09-03T12:58:03;1.02;;;0.70;;
16667;SDS011;8447;52.630;4.734;2022-09-03T13:00:30;2.92;;;0.93;;
16667;SDS011;8447;52.630;4.734;2022-09-03T13:02:58;2.17;;;0.82;;
16667;SDS011;8447;52.630;4.734;2022-09-03T13:05:28;1.80;;;0.60;;
16667;SDS011;8447;52.630;4.734;2022-09-03T13:07:56;2.50;;;0.77;;
16667;SDS011;8447;52.630;4.734;2022-09-03T13:10:25;2.38;;;0.77;;
16667;SDS011;8447;52.630;4.734;2022-09-03T13:12:56;2.40;;;0.57;;
16667;SDS011;8447;52.630;4.734;2022-09-03T13:15:23;4.10;;;0.60;;
16667;SDS011;8447;52.630;4.734;2022-09-03T13:17:53;3.70;;;0.90;;
16667;SDS011;8447;52.630;4.734;2022-09-03T13:20:34;3.13;;;0.85;;
16667;SDS011;8447;52.630;4.734;2022-09-03T13:23:27;4.90;;;1.00;;
16667;SDS011;8447;52.630;4.734;2022-09-03T13:25:58;2.38;;;0.88;;
16667;SDS011;8447;52.630;4.734;2022-09-03T13:28:30;1.42;;;0.80;;
16667;SDS011;8447;52.630;4.734;2022-09-03T13:30:59;2.08;;;0.77;;
16667;SDS011;8447;52.630;4.734;2022-09-03T13:33:31;2.80;;;0.75;;
16667;SDS011;8447;52.630;4.734;2022-09-03T13:36:01;5.53;;;0.93;;
16667;SDS011;8447;52.630;4.734;2022-09-03T13:38:29;3.60;;;0.98;;
16667;SDS011;8447;52.630;4.734;2022-09-03T13:40:57;2.20;;;1.00;;
16667;SDS011;8447;52.630;4.734;2022-09-03T13:43:27;3.33;;;0.73;;
16667;SDS011;8447;52.630;4.734;2022-09-03T13:45:55;4.75;;;0.70;;
16667;SDS011;8447;52.630;4.734;2022-09-03T13:48:24;4.07;;;0.88;;
16667;SDS011;8447;52.630;4.734;2022-09-03T13:51:12;5.13;;;0.95;;
16667;SDS011;8447;52.630;4.734;2022-09-03T13:53:43;1.13;;;0.88;;
16667;SDS011;8447;52.630;4.734;2022-09-03T13:56:17;3.20;;;0.80;;
16667;SDS011;8447;52.630;4.734;2022-09-03T13:58:45;3.00;;;0.90;;
16667;SDS011;8447;52.630;4.734;2022-09-03T14:01:14;2.47;;;0.80;;
16667;SDS011;8447;52.630;4.734;2022-09-03T14:03:45;1.53;;;0.90;;
16667;SDS011;8447;52.630;4.734;2022-09-03T14:06:17;1.50;;;0.80;;
16667;SDS011;8447;52.630;4.734;2022-09-03T14:08:51;1.37;;;0.87;;
16667;SDS011;8447;52.630;4.734;2022-09-03T14:11:22;3.27;;;0.80;;
16667;SDS011;8447;52.630;4.734;2022-09-03T14:13:53;1.00;;;0.80;;
16667;SDS011;8447;52.630;4.734;2022-09-03T14:16:23;2.40;;;0.90;;
16667;SDS011;8447;52.630;4.734;2022-09-03T14:18:55;1.67;;;0.67;;
16667;SDS011;8447;52.630;4.734;2022-09-03T14:21:26;2.13;;;0.70;;
16667;SDS011;8447;52.630;4.734;2022-09-03T14:23:54;2.27;;;0.70;;
16667;SDS011;8447;52.630;4.734;2022-09-03T14:26:26;1.40;;;0.60;;
16667;SDS011;8447;52.630;4.734;2022-09-03T14:28:56;2.03;;;0.80;;
16667;SDS011;8447;52.630;4.734;2022-09-03T14:31:26;2.10;;;1.20;;
16667;SDS011;8447;52.630;4.734;2022-09-03T14:33:56;0.77;;;0.70;;
16667;SDS011;8447;52.630;4.734;2022-09-03T14:36:27;2.80;;;0.80;;
16667;SDS011;8447;52.630;4.734;2022-09-03T14:38:56;1.67;;;0.80;;
16667;SDS011;8447;52.630;4.734;2022-09-03T14:41:31;1.20;;;0.63;;
16667;SDS011;8447;52.630;4.734;2022-09-03T14:44:08;0.90;;;0.60;;
16667;SDS011;8447;52.630;4.734;2022-09-03T14:46:43;4.10;;;0.90;;
16667;SDS011;8447;52.630;4.734;2022-09-03T14:49:19;2.93;;;1.23;;
16667;SDS011;8447;52.630;4.734;2022-09-03T14:51:52;3.33;;;0.87;;
16667;SDS011;8447;52.630;4.734;2022-09-03T14:54:26;1.20;;;0.80;;
16667;SDS011;8447;52.630;4.734;2022-09-03T14:56:58;4.27;;;0.90;;
16667;SDS011;8447;52.630;4.734;2022-09-03T15:02:14;1.30;;;0.73;;
16667;SDS011;8447;52.630;4.734;2022-09-03T15:04:47;1.17;;;0.93;;
16667;SDS011;8447;52.630;4.734;2022-09-03T15:07:20;1.57;;;0.83;;
16667;SDS011;8447;52.630;4.734;2022-09-03T15:09:52;2.30;;;0.70;;
16667;SDS011;8447;52.630;4.734;2022-09-03T15:12:20;3.73;;;0.60;;
16667;SDS011;8447;52.630;4.734;2022-09-03T15:14:49;1.80;;;0.80;;
16667;SDS011;8447;52.630;4.734;2022-09-03T15:17:21;1.03;;;0.90;;
16667;SDS011;8447;52.630;4.734;2022-09-03T15:19:55;1.00;;;0.60;;
16667;SDS011;8447;52.630;4.734;2022-09-03T15:22:33;1.17;;;0.90;;